sensor_id;sensor_type;location;lat;lon;timestamp;P1;P2;P0
76420;PMS5003;65253;52.354;13.614;2023-07-30T00:00:00;5;5;
76420;PMS5003;65253;52.354;13.614;2023-07-30T00:04:00;6;6;
76420;PMS5003;65253;52.354;13.614;2023-07-30T00:08:00;6;5;
76420;PMS5003;65253;52.354;13.614;2023-07-30T00:12:00;8;8;
76420;PMS5003;65253;52.354;13.614;2023-07-30T00:16:00;7;7;
76420;PMS5003;65253;52.354;13.614;2023-07-30T00:20:00;6;6;
76420;PMS5003;65253;52.354;13.614;2023-07-30T00:24:00;7;7;
76420;PMS5003;65253;52.354;13.614;2023-07-30T00:28:00;6;6;
76420;PMS5003;65253;52.354;13.614;2023-07-30T00:32:00;8;8;
76420;PMS5003;65253;52.354;13.614;2023-07-30T00:36:00;7;7;
76420;PMS5003;65253;52.354;13.614;2023-07-30T00:40:00;10;6;
76420;PMS5003;65253;52.354;13.614;2023-07-30T00:44:00;8;7;
76420;PMS5003;65253;52.354;13.614;2023-07-30T00:48:00;7;7;
76420;PMS5003;65253;52.354;13.614;2023-07-30T00:52:00;8;6;
76420;PMS5003;65253;52.354;13.614;2023-07-30T00:56:00;9;7;
76420;PMS5003;65253;52.354;13.614;2023-07-30T01:00:00;7;7;
76420;PMS5003;65253;52.354;13.614;2023-07-30T01:04:00;8;7;
76420;PMS5003;65253;52.354;13.614;2023-07-30T01:08:00;9;6;
76420;PMS5003;65253;52.354;13.614;2023-07-30T01:12:00;7;7;
76420;PMS5003;65253;52.354;13.614;2023-07-30T01:16:00;6;6;
76420;PMS5003;65253;52.354;13.614;2023-07-30T01:20:00;7;7;
76420;PMS5003;65253;52.354;13.614;2023-07-30T01:24:00;7;6;
76420;PMS5003;65253;52.354;13.614;2023-07-30T01:28:00;9;8;
76420;PMS5003;65253;52.354;13.614;2023-07-30T01:32:01;11;8;
76420;PMS5003;65253;52.354;13.614;2023-07-30T01:36:00;9;8;
76420;PMS5003;65253;52.354;13.614;2023-07-30T01:40:00;7;7;
76420;PMS5003;65253;52.354;13.614;2023-07-30T01:44:00;8;7;
76420;PMS5003;65253;52.354;13.614;2023-07-30T01:48:00;8;8;
76420;PMS5003;65253;52.354;13.614;2023-07-30T01:52:00;8;8;
76420;PMS5003;65253;52.354;13.614;2023-07-30T01:56:00;9;7;
76420;PMS5003;65253;52.354;13.614;2023-07-30T02:00:00;7;7;
76420;PMS5003;65253;52.354;13.614;2023-07-30T02:04:00;8;6;
76420;PMS5003;65253;52.354;13.614;2023-07-30T02:08:00;8;6;
76420;PMS5003;65253;52.354;13.614;2023-07-30T02:12:00;9;9;
76420;PMS5003;65253;52.354;13.614;2023-07-30T02:16:00;10;7;
76420;PMS5003;65253;52.354;13.614;2023-07-30T02:20:00;7;6;
76420;PMS5003;65253;52.354;13.614;2023-07-30T02:24:00;5;5;
76420;PMS5003;65253;52.354;13.614;2023-07-30T02:28:00;8;8;
76420;PMS5003;65253;52.354;13.614;2023-07-30T02:32:00;10;9;
76420;PMS5003;65253;52.354;13.614;2023-07-30T02:36:00;7;7;
76420;PMS5003;65253;52.354;13.614;2023-07-30T02:40:00;11;8;
76420;PMS5003;65253;52.354;13.614;2023-07-30T02:44:00;8;8;
76420;PMS5003;65253;52.354;13.614;2023-07-30T02:48:00;8;6;
76420;PMS5003;65253;52.354;13.614;2023-07-30T02:52:00;11;7;
76420;PMS5003;65253;52.354;13.614;2023-07-30T02:56:00;7;7;
76420;PMS5003;65253;52.354;13.614;2023-07-30T03:00:00;9;8;
76420;PMS5003;65253;52.354;13.614;2023-07-30T03:04:00;9;7;
76420;PMS5003;65253;52.354;13.614;2023-07-30T03:08:00;10;10;
76420;PMS5003;65253;52.354;13.614;2023-07-30T03:12:00;7;7;
76420;PMS5003;65253;52.354;13.614;2023-07-30T03:16:00;15;7;
76420;PMS5003;65253;52.354;13.614;2023-07-30T03:20:00;8;7;
76420;PMS5003;65253;52.354;13.614;2023-07-30T03:24:00;10;9;
76420;PMS5003;65253;52.354;13.614;2023-07-30T03:28:00;7;6;
76420;PMS5003;65253;52.354;13.614;2023-07-30T03:32:00;8;8;
76420;PMS5003;65253;52.354;13.614;2023-07-30T03:36:00;7;7;
76420;PMS5003;65253;52.354;13.614;2023-07-30T03:40:00;8;8;
76420;PMS5003;65253;52.354;13.614;2023-07-30T03:44:00;10;8;
76420;PMS5003;65253;52.354;13.614;2023-07-30T03:48:00;9;8;
76420;PMS5003;65253;52.354;13.614;2023-07-30T03:52:00;11;9;
76420;PMS5003;65253;52.354;13.614;2023-07-30T03:56:02;10;10;
76420;PMS5003;65253;52.354;13.614;2023-07-30T04:00:00;11;9;
76420;PMS5003;65253;52.354;13.614;2023-07-30T04:04:00;13;9;
76420;PMS5003;65253;52.354;13.614;2023-07-30T04:08:00;14;11;
76420;PMS5003;65253;52.354;13.614;2023-07-30T04:12:00;11;10;
76420;PMS5003;65253;52.354;13.614;2023-07-30T04:16:00;12;12;
76420;PMS5003;65253;52.354;13.614;2023-07-30T04:20:00;12;12;
76420;PMS5003;65253;52.354;13.614;2023-07-30T04:24:00;11;11;
76420;PMS5003;65253;52.354;13.614;2023-07-30T04:28:00;15;11;
76420;PMS5003;65253;52.354;13.614;2023-07-30T04:32:00;11;11;
76420;PMS5003;65253;52.354;13.614;2023-07-30T04:36:00;11;10;
76420;PMS5003;65253;52.354;13.614;2023-07-30T04:40:00;10;9;
76420;PMS5003;65253;52.354;13.614;2023-07-30T04:44:00;9;9;
76420;PMS5003;65253;52.354;13.614;2023-07-30T04:48:00;10;10;
76420;PMS5003;65253;52.354;13.614;2023-07-30T04:52:00;9;9;
76420;PMS5003;65253;52.354;13.614;2023-07-30T04:56:00;11;11;
76420;PMS5003;65253;52.354;13.614;2023-07-30T05:00:00;9;9;
76420;PMS5003;65253;52.354;13.614;2023-07-30T05:04:00;11;9;
76420;PMS5003;65253;52.354;13.614;2023-07-30T05:08:00;11;8;
76420;PMS5003;65253;52.354;13.614;2023-07-30T05:12:00;8;8;
76420;PMS5003;65253;52.354;13.614;2023-07-30T05:16:00;12;11;
76420;PMS5003;65253;52.354;13.614;2023-07-30T05:20:00;11;9;
76420;PMS5003;65253;52.354;13.614;2023-07-30T05:24:00;9;9;
76420;PMS5003;65253;52.354;13.614;2023-07-30T05:28:00;10;9;
76420;PMS5003;65253;52.354;13.614;2023-07-30T05:32:00;13;10;
76420;PMS5003;65253;52.354;13.614;2023-07-30T05:36:00;11;10;
76420;PMS5003;65253;52.354;13.614;2023-07-30T05:40:00;11;10;
76420;PMS5003;65253;52.354;13.614;2023-07-30T05:44:00;11;11;
76420;PMS5003;65253;52.354;13.614;2023-07-30T05:48:00;15;13;
76420;PMS5003;65253;52.354;13.614;2023-07-30T05:52:00;13;11;
76420;PMS5003;65253;52.354;13.614;2023-07-30T05:56:00;10;10;
76420;PMS5003;65253;52.354;13.614;2023-07-30T06:00:00;11;11;
76420;PMS5003;65253;52.354;13.614;2023-07-30T06:04:00;9;8;
76420;PMS5003;65253;52.354;13.614;2023-07-30T06:08:00;9;9;
76420;PMS5003;65253;52.354;13.614;2023-07-30T06:12:00;8;8;
76420;PMS5003;65253;52.354;13.614;2023-07-30T06:16:00;10;10;
76420;PMS5003;65253;52.354;13.614;2023-07-30T06:20:00;9;9;
76420;PMS5003;65253;52.354;13.614;2023-07-30T06:24:00;12;9;
76420;PMS5003;65253;52.354;13.614;2023-07-30T06:28:00;10;8;
76420;PMS5003;65253;52.354;13.614;2023-07-30T06:32:00;12;10;
76420;PMS5003;65253;52.354;13.614;2023-07-30T06:36:00;8;8;
76420;PMS5003;65253;52.354;13.614;2023-07-30T06:40:00;9;8;
76420;PMS5003;65253;52.354;13.614;2023-07-30T06:44:00;10;10;
76420;PMS5003;65253;52.354;13.614;2023-07-30T06:48:00;7;7;
76420;PMS5003;65253;52.354;13.614;2023-07-30T06:52:00;10;6;
76420;PMS5003;65253;52.354;13.614;2023-07-30T06:56:00;6;6;
76420;PMS5003;65253;52.354;13.614;2023-07-30T07:00:00;6;6;
76420;PMS5003;65253;52.354;13.614;2023-07-30T07:04:00;11;7;
76420;PMS5003;65253;52.354;13.614;2023-07-30T07:08:00;7;7;
76420;PMS5003;65253;52.354;13.614;2023-07-30T07:12:00;9;8;
76420;PMS5003;65253;52.354;13.614;2023-07-30T07:16:00;7;7;
76420;PMS5003;65253;52.354;13.614;2023-07-30T07:20:00;10;8;
76420;PMS5003;65253;52.354;13.614;2023-07-30T07:24:00;9;9;
76420;PMS5003;65253;52.354;13.614;2023-07-30T07:28:00;9;8;
76420;PMS5003;65253;52.354;13.614;2023-07-30T07:32:00;7;7;
76420;PMS5003;65253;52.354;13.614;2023-07-30T07:36:03;6;6;
76420;PMS5003;65253;52.354;13.614;2023-07-30T07:40:00;9;7;
76420;PMS5003;65253;52.354;13.614;2023-07-30T07:44:00;8;8;
76420;PMS5003;65253;52.354;13.614;2023-07-30T07:48:00;5;5;
76420;PMS5003;65253;52.354;13.614;2023-07-30T07:52:00;6;6;
76420;PMS5003;65253;52.354;13.614;2023-07-30T07:56:00;8;5;
76420;PMS5003;65253;52.354;13.614;2023-07-30T08:00:00;6;6;
76420;PMS5003;65253;52.354;13.614;2023-07-30T08:04:01;10;7;
76420;PMS5003;65253;52.354;13.614;2023-07-30T08:08:00;7;7;
76420;PMS5003;65253;52.354;13.614;2023-07-30T08:12:00;9;8;
76420;PMS5003;65253;52.354;13.614;2023-07-30T08:16:00;6;6;
76420;PMS5003;65253;52.354;13.614;2023-07-30T08:20:00;6;5;
76420;PMS5003;65253;52.354;13.614;2023-07-30T08:24:00;6;5;
76420;PMS5003;65253;52.354;13.614;2023-07-30T08:28:00;6;6;
76420;PMS5003;65253;52.354;13.614;2023-07-30T08:32:00;4;4;
76420;PMS5003;65253;52.354;13.614;2023-07-30T08:36:00;5;5;
76420;PMS5003;65253;52.354;13.614;2023-07-30T08:40:00;5;5;
76420;PMS5003;65253;52.354;13.614;2023-07-30T08:44:00;8;7;
76420;PMS5003;65253;52.354;13.614;2023-07-30T08:48:00;7;7;
76420;PMS5003;65253;52.354;13.614;2023-07-30T08:52:00;12;7;
76420;PMS5003;65253;52.354;13.614;2023-07-30T08:56:00;6;6;
76420;PMS5003;65253;52.354;13.614;2023-07-30T09:00:02;7;7;
76420;PMS5003;65253;52.354;13.614;2023-07-30T09:04:00;9;7;
76420;PMS5003;65253;52.354;13.614;2023-07-30T09:08:00;7;7;
76420;PMS5003;65253;52.354;13.614;2023-07-30T09:12:00;6;5;
76420;PMS5003;65253;52.354;13.614;2023-07-30T09:16:00;7;7;
76420;PMS5003;65253;52.354;13.614;2023-07-30T09:20:00;5;5;
76420;PMS5003;65253;52.354;13.614;2023-07-30T09:24:01;7;7;
76420;PMS5003;65253;52.354;13.614;2023-07-30T09:28:00;6;4;
76420;PMS5003;65253;52.354;13.614;2023-07-30T09:32:00;7;5;
76420;PMS5003;65253;52.354;13.614;2023-07-30T09:36:01;4;4;
76420;PMS5003;65253;52.354;13.614;2023-07-30T09:40:00;4;4;
76420;PMS5003;65253;52.354;13.614;2023-07-30T09:44:00;6;4;
76420;PMS5003;65253;52.354;13.614;2023-07-30T09:48:00;4;4;
76420;PMS5003;65253;52.354;13.614;2023-07-30T09:52:00;5;5;
76420;PMS5003;65253;52.354;13.614;2023-07-30T09:56:00;7;4;
76420;PMS5003;65253;52.354;13.614;2023-07-30T10:00:03;4;4;
76420;PMS5003;65253;52.354;13.614;2023-07-30T10:04:00;4;3;
76420;PMS5003;65253;52.354;13.614;2023-07-30T10:08:02;4;4;
76420;PMS5003;65253;52.354;13.614;2023-07-30T10:12:00;7;4;
76420;PMS5003;65253;52.354;13.614;2023-07-30T10:16:00;6;4;
76420;PMS5003;65253;52.354;13.614;2023-07-30T10:24:03;4;4;
76420;PMS5003;65253;52.354;13.614;2023-07-30T10:28:00;5;4;
76420;PMS5003;65253;52.354;13.614;2023-07-30T10:32:00;3;3;
76420;PMS5003;65253;52.354;13.614;2023-07-30T10:36:03;5;3;
76420;PMS5003;65253;52.354;13.614;2023-07-30T10:40:00;5;4;
76420;PMS5003;65253;52.354;13.614;2023-07-30T10:44:00;6;5;
76420;PMS5003;65253;52.354;13.614;2023-07-30T10:48:03;4;3;
76420;PMS5003;65253;52.354;13.614;2023-07-30T10:52:00;6;4;
76420;PMS5003;65253;52.354;13.614;2023-07-30T10:56:00;7;4;
76420;PMS5003;65253;52.354;13.614;2023-07-30T11:00:00;5;4;
76420;PMS5003;65253;52.354;13.614;2023-07-30T11:04:00;7;5;
76420;PMS5003;65253;52.354;13.614;2023-07-30T11:08:00;4;4;
76420;PMS5003;65253;52.354;13.614;2023-07-30T11:12:00;4;4;
76420;PMS5003;65253;52.354;13.614;2023-07-30T11:16:00;5;5;
76420;PMS5003;65253;52.354;13.614;2023-07-30T11:20:00;5;4;
76420;PMS5003;65253;52.354;13.614;2023-07-30T11:24:00;3;3;
76420;PMS5003;65253;52.354;13.614;2023-07-30T11:28:00;6;3;
76420;PMS5003;65253;52.354;13.614;2023-07-30T11:32:01;3;3;
76420;PMS5003;65253;52.354;13.614;2023-07-30T11:36:00;4;3;
76420;PMS5003;65253;52.354;13.614;2023-07-30T11:40:00;3;2;
76420;PMS5003;65253;52.354;13.614;2023-07-30T11:44:00;1;1;
76420;PMS5003;65253;52.354;13.614;2023-07-30T11:48:08;2;2;
76420;PMS5003;65253;52.354;13.614;2023-07-30T11:52:03;2;2;
76420;PMS5003;65253;52.354;13.614;2023-07-30T11:56:00;1;1;
76420;PMS5003;65253;52.354;13.614;2023-07-30T12:00:00;3;3;
76420;PMS5003;65253;52.354;13.614;2023-07-30T12:04:01;3;3;
76420;PMS5003;65253;52.354;13.614;2023-07-30T12:08:00;2;2;
76420;PMS5003;65253;52.354;13.614;2023-07-30T12:12:00;2;1;
76420;PMS5003;65253;52.354;13.614;2023-07-30T12:16:00;3;3;
76420;PMS5003;65253;52.354;13.614;2023-07-30T12:20:00;3;3;
76420;PMS5003;65253;52.354;13.614;2023-07-30T12:24:00;3;3;
76420;PMS5003;65253;52.354;13.614;2023-07-30T12:28:00;3;3;
76420;PMS5003;65253;52.354;13.614;2023-07-30T12:32:04;2;2;
76420;PMS5003;65253;52.354;13.614;2023-07-30T12:36:00;4;2;
76420;PMS5003;65253;52.354;13.614;2023-07-30T12:40:00;5;2;
76420;PMS5003;65253;52.354;13.614;2023-07-30T12:44:00;5;3;
76420;PMS5003;65253;52.354;13.614;2023-07-30T12:48:00;3;3;
76420;PMS5003;65253;52.354;13.614;2023-07-30T12:52:00;2;2;
76420;PMS5003;65253;52.354;13.614;2023-07-30T12:56:00;3;3;
76420;PMS5003;65253;52.354;13.614;2023-07-30T13:00:00;2;2;
76420;PMS5003;65253;52.354;13.614;2023-07-30T13:04:00;3;3;
76420;PMS5003;65253;52.354;13.614;2023-07-30T13:08:03;4;2;
76420;PMS5003;65253;52.354;13.614;2023-07-30T13:12:00;1;1;
76420;PMS5003;65253;52.354;13.614;2023-07-30T13:16:00;2;2;
76420;PMS5003;65253;52.354;13.614;2023-07-30T13:20:00;1;1;
76420;PMS5003;65253;52.354;13.614;2023-07-30T13:24:00;4;3;
76420;PMS5003;65253;52.354;13.614;2023-07-30T13:28:00;3;2;
76420;PMS5003;65253;52.354;13.614;2023-07-30T13:32:00;4;2;
76420;PMS5003;65253;52.354;13.614;2023-07-30T13:36:00;2;2;
76420;PMS5003;65253;52.354;13.614;2023-07-30T13:40:00;4;3;
76420;PMS5003;65253;52.354;13.614;2023-07-30T13:44:00;3;3;
76420;PMS5003;65253;52.354;13.614;2023-07-30T13:48:00;4;3;
76420;PMS5003;65253;52.354;13.614;2023-07-30T13:52:00;2;2;
76420;PMS5003;65253;52.354;13.614;2023-07-30T13:56:00;4;3;
76420;PMS5003;65253;52.354;13.614;2023-07-30T14:00:00;2;2;
76420;PMS5003;65253;52.354;13.614;2023-07-30T14:04:00;3;3;
76420;PMS5003;65253;52.354;13.614;2023-07-30T14:08:00;3;3;
76420;PMS5003;65253;52.354;13.614;2023-07-30T14:12:00;4;4;
76420;PMS5003;65253;52.354;13.614;2023-07-30T14:16:00;6;3;
76420;PMS5003;65253;52.354;13.614;2023-07-30T14:20:00;3;3;
76420;PMS5003;65253;52.354;13.614;2023-07-30T14:24:00;2;2;
76420;PMS5003;65253;52.354;13.614;2023-07-30T14:28:00;3;3;
76420;PMS5003;65253;52.354;13.614;2023-07-30T14:32:00;2;2;
76420;PMS5003;65253;52.354;13.614;2023-07-30T14:36:00;2;2;
76420;PMS5003;65253;52.354;13.614;2023-07-30T14:40:00;2;2;
76420;PMS5003;65253;52.354;13.614;2023-07-30T14:44:00;3;2;
76420;PMS5003;65253;52.354;13.614;2023-07-30T14:48:00;2;1;
76420;PMS5003;65253;52.354;13.614;2023-07-30T14:52:00;2;2;
76420;PMS5003;65253;52.354;13.614;2023-07-30T14:56:02;2;2;
76420;PMS5003;65253;52.354;13.614;2023-07-30T15:00:00;1;1;
76420;PMS5003;65253;52.354;13.614;2023-07-30T15:04:00;3;2;
76420;PMS5003;65253;52.354;13.614;2023-07-30T15:08:00;2;2;
76420;PMS5003;65253;52.354;13.614;2023-07-30T15:12:00;3;1;
76420;PMS5003;65253;52.354;13.614;2023-07-30T15:16:00;0;0;
76420;PMS5003;65253;52.354;13.614;2023-07-30T15:20:00;1;1;
76420;PMS5003;65253;52.354;13.614;2023-07-30T15:24:00;1;1;
76420;PMS5003;65253;52.354;13.614;2023-07-30T15:28:00;2;1;
76420;PMS5003;65253;52.354;13.614;2023-07-30T15:32:00;1;1;
76420;PMS5003;65253;52.354;13.614;2023-07-30T15:36:00;2;1;
76420;PMS5003;65253;52.354;13.614;2023-07-30T15:40:00;2;2;
76420;PMS5003;65253;52.354;13.614;2023-07-30T15:44:00;3;1;
76420;PMS5003;65253;52.354;13.614;2023-07-30T15:48:00;1;1;
76420;PMS5003;65253;52.354;13.614;2023-07-30T15:52:00;2;1;
76420;PMS5003;65253;52.354;13.614;2023-07-30T15:56:00;1;1;
76420;PMS5003;65253;52.354;13.614;2023-07-30T16:00:00;0;0;
76420;PMS5003;65253;52.354;13.614;2023-07-30T16:04:00;2;1;
76420;PMS5003;65253;52.354;13.614;2023-07-30T16:08:00;1;1;
76420;PMS5003;65253;52.354;13.614;2023-07-30T16:12:00;1;1;
76420;PMS5003;65253;52.354;13.614;2023-07-30T16:16:08;1;1;
76420;PMS5003;65253;52.354;13.614;2023-07-30T16:20:00;1;1;
76420;PMS5003;65253;52.354;13.614;2023-07-30T16:24:00;1;1;
76420;PMS5003;65253;52.354;13.614;2023-07-30T16:28:00;1;1;
76420;PMS5003;65253;52.354;13.614;2023-07-30T16:32:00;1;1;
76420;PMS5003;65253;52.354;13.614;2023-07-30T16:36:00;1;1;
76420;PMS5003;65253;52.354;13.614;2023-07-30T16:40:00;1;1;
76420;PMS5003;65253;52.354;13.614;2023-07-30T16:44:00;1;1;
76420;PMS5003;65253;52.354;13.614;2023-07-30T16:48:00;1;1;
76420;PMS5003;65253;52.354;13.614;2023-07-30T16:52:00;1;1;
76420;PMS5003;65253;52.354;13.614;2023-07-30T16:56:08;3;1;
76420;PMS5003;65253;52.354;13.614;2023-07-30T17:00:00;1;1;
76420;PMS5003;65253;52.354;13.614;2023-07-30T17:04:00;2;1;
76420;PMS5003;65253;52.354;13.614;2023-07-30T17:08:00;2;1;
76420;PMS5003;65253;52.354;13.614;2023-07-30T17:12:00;1;1;
76420;PMS5003;65253;52.354;13.614;2023-07-30T17:16:03;1;1;
76420;PMS5003;65253;52.354;13.614;2023-07-30T17:20:02;1;1;
76420;PMS5003;65253;52.354;13.614;2023-07-30T17:24:00;2;1;
76420;PMS5003;65253;52.354;13.614;2023-07-30T17:28:00;2;2;
76420;PMS5003;65253;52.354;13.614;2023-07-30T17:32:00;1;1;
76420;PMS5003;65253;52.354;13.614;2023-07-30T17:36:00;1;1;
76420;PMS5003;65253;52.354;13.614;2023-07-30T17:40:00;1;1;
76420;PMS5003;65253;52.354;13.614;2023-07-30T17:44:00;1;1;
76420;PMS5003;65253;52.354;13.614;2023-07-30T17:48:00;3;1;
76420;PMS5003;65253;52.354;13.614;2023-07-30T17:52:00;1;1;
76420;PMS5003;65253;52.354;13.614;2023-07-30T17:56:00;5;2;
76420;PMS5003;65253;52.354;13.614;2023-07-30T18:00:00;1;1;
76420;PMS5003;65253;52.354;13.614;2023-07-30T18:04:00;3;2;
76420;PMS5003;65253;52.354;13.614;2023-07-30T18:08:00;1;1;
76420;PMS5003;65253;52.354;13.614;2023-07-30T18:12:00;1;1;
76420;PMS5003;65253;52.354;13.614;2023-07-30T18:16:00;2;2;
76420;PMS5003;65253;52.354;13.614;2023-07-30T18:20:00;3;3;
76420;PMS5003;65253;52.354;13.614;2023-07-30T18:24:00;2;2;
76420;PMS5003;65253;52.354;13.614;2023-07-30T18:28:00;2;2;
76420;PMS5003;65253;52.354;13.614;2023-07-30T18:32:04;2;2;
76420;PMS5003;65253;52.354;13.614;2023-07-30T18:36:00;3;3;
76420;PMS5003;65253;52.354;13.614;2023-07-30T18:40:00;2;2;
76420;PMS5003;65253;52.354;13.614;2023-07-30T18:44:00;2;1;
76420;PMS5003;65253;52.354;13.614;2023-07-30T18:48:00;2;2;
76420;PMS5003;65253;52.354;13.614;2023-07-30T18:52:00;2;2;
76420;PMS5003;65253;52.354;13.614;2023-07-30T18:56:00;4;3;
76420;PMS5003;65253;52.354;13.614;2023-07-30T19:00:00;3;3;
76420;PMS5003;65253;52.354;13.614;2023-07-30T19:04:01;3;3;
76420;PMS5003;65253;52.354;13.614;2023-07-30T19:08:00;4;4;
76420;PMS5003;65253;52.354;13.614;2023-07-30T19:12:00;4;3;
76420;PMS5003;65253;52.354;13.614;2023-07-30T19:16:00;2;2;
76420;PMS5003;65253;52.354;13.614;2023-07-30T19:20:00;3;3;
76420;PMS5003;65253;52.354;13.614;2023-07-30T19:24:00;3;3;
76420;PMS5003;65253;52.354;13.614;2023-07-30T19:28:00;3;3;
76420;PMS5003;65253;52.354;13.614;2023-07-30T19:32:00;2;2;
76420;PMS5003;65253;52.354;13.614;2023-07-30T19:36:00;3;3;
76420;PMS5003;65253;52.354;13.614;2023-07-30T19:40:00;3;3;
76420;PMS5003;65253;52.354;13.614;2023-07-30T19:44:00;4;4;
76420;PMS5003;65253;52.354;13.614;2023-07-30T19:48:01;5;3;
76420;PMS5003;65253;52.354;13.614;2023-07-30T19:52:00;4;2;
76420;PMS5003;65253;52.354;13.614;2023-07-30T19:56:00;6;4;
76420;PMS5003;65253;52.354;13.614;2023-07-30T20:00:00;4;4;
76420;PMS5003;65253;52.354;13.614;2023-07-30T20:04:00;3;3;
76420;PMS5003;65253;52.354;13.614;2023-07-30T20:08:00;3;2;
76420;PMS5003;65253;52.354;13.614;2023-07-30T20:12:00;4;4;
76420;PMS5003;65253;52.354;13.614;2023-07-30T20:16:00;2;2;
76420;PMS5003;65253;52.354;13.614;2023-07-30T20:20:00;4;2;
76420;PMS5003;65253;52.354;13.614;2023-07-30T20:24:00;3;3;
76420;PMS5003;65253;52.354;13.614;2023-07-30T20:28:00;2;2;
76420;PMS5003;65253;52.354;13.614;2023-07-30T20:32:00;3;3;
76420;PMS5003;65253;52.354;13.614;2023-07-30T20:36:00;5;5;
76420;PMS5003;65253;52.354;13.614;2023-07-30T20:40:00;4;3;
76420;PMS5003;65253;52.354;13.614;2023-07-30T20:44:00;5;4;
76420;PMS5003;65253;52.354;13.614;2023-07-30T20:48:00;2;2;
76420;PMS5003;65253;52.354;13.614;2023-07-30T20:52:00;4;4;
76420;PMS5003;65253;52.354;13.614;2023-07-30T20:56:00;5;4;
76420;PMS5003;65253;52.354;13.614;2023-07-30T21:00:00;4;4;
76420;PMS5003;65253;52.354;13.614;2023-07-30T21:04:00;4;4;
76420;PMS5003;65253;52.354;13.614;2023-07-30T21:08:00;5;5;
76420;PMS5003;65253;52.354;13.614;2023-07-30T21:12:00;7;5;
76420;PMS5003;65253;52.354;13.614;2023-07-30T21:16:00;7;4;
76420;PMS5003;65253;52.354;13.614;2023-07-30T21:20:01;6;5;
76420;PMS5003;65253;52.354;13.614;2023-07-30T21:24:00;6;5;
76420;PMS5003;65253;52.354;13.614;2023-07-30T21:28:00;6;6;
76420;PMS5003;65253;52.354;13.614;2023-07-30T21:32:01;6;5;
76420;PMS5003;65253;52.354;13.614;2023-07-30T21:36:00;7;5;
76420;PMS5003;65253;52.354;13.614;2023-07-30T21:40:00;4;4;
76420;PMS5003;65253;52.354;13.614;2023-07-30T21:44:00;5;4;
76420;PMS5003;65253;52.354;13.614;2023-07-30T21:48:00;4;4;
76420;PMS5003;65253;52.354;13.614;2023-07-30T21:52:00;8;5;
76420;PMS5003;65253;52.354;13.614;2023-07-30T21:56:00;7;4;
76420;PMS5003;65253;52.354;13.614;2023-07-30T22:00:00;6;5;
76420;PMS5003;65253;52.354;13.614;2023-07-30T22:04:00;3;3;
76420;PMS5003;65253;52.354;13.614;2023-07-30T22:08:00;4;4;
76420;PMS5003;65253;52.354;13.614;2023-07-30T22:12:00;4;3;
76420;PMS5003;65253;52.354;13.614;2023-07-30T22:16:00;6;3;
76420;PMS5003;65253;52.354;13.614;2023-07-30T22:20:00;3;3;
76420;PMS5003;65253;52.354;13.614;2023-07-30T22:24:00;3;1;
76420;PMS5003;65253;52.354;13.614;2023-07-30T22:28:10;1;1;
76420;PMS5003;65253;52.354;13.614;2023-07-30T22:32:00;3;2;
76420;PMS5003;65253;52.354;13.614;2023-07-30T22:36:00;1;1;
76420;PMS5003;65253;52.354;13.614;2023-07-30T22:40:01;2;2;
76420;PMS5003;65253;52.354;13.614;2023-07-30T22:44:00;5;3;
76420;PMS5003;65253;52.354;13.614;2023-07-30T22:48:00;2;2;
76420;PMS5003;65253;52.354;13.614;2023-07-30T22:52:00;3;1;
76420;PMS5003;65253;52.354;13.614;2023-07-30T22:56:00;2;1;
76420;PMS5003;65253;52.354;13.614;2023-07-30T23:00:00;3;2;
76420;PMS5003;65253;52.354;13.614;2023-07-30T23:04:00;4;3;
76420;PMS5003;65253;52.354;13.614;2023-07-30T23:08:00;2;2;
76420;PMS5003;65253;52.354;13.614;2023-07-30T23:12:00;2;1;
76420;PMS5003;65253;52.354;13.614;2023-07-30T23:16:00;4;1;
76420;PMS5003;65253;52.354;13.614;2023-07-30T23:20:00;4;3;
76420;PMS5003;65253;52.354;13.614;2023-07-30T23:24:00;4;3;
76420;PMS5003;65253;52.354;13.614;2023-07-30T23:28:00;2;2;
76420;PMS5003;65253;52.354;13.614;2023-07-30T23:32:00;3;2;
76420;PMS5003;65253;52.354;13.614;2023-07-30T23:36:05;2;2;
76420;PMS5003;65253;52.354;13.614;2023-07-30T23:40:00;2;2;
76420;PMS5003;65253;52.354;13.614;2023-07-30T23:44:00;2;2;
76420;PMS5003;65253;52.354;13.614;2023-07-30T23:48:00;4;1;
76420;PMS5003;65253;52.354;13.614;2023-07-30T23:52:00;4;3;
76420;PMS5003;65253;52.354;13.614;2023-07-30T23:56:00;2;2;
